createdAt,value
2023-11-25T00:00:51.051Z,33.60
2023-11-25T00:03:29.082Z,34.50
2023-11-25T00:06:06.429Z,34.70
2023-11-25T00:08:44.015Z,31.40
2023-11-25T00:11:28.578Z,33.90
2023-11-25T00:14:08.918Z,31.50
2023-11-25T00:16:45.845Z,35.10
2023-11-25T00:19:22.998Z,32.40
2023-11-25T00:22:00.515Z,32.60
2023-11-25T00:24:37.747Z,33.90
2023-11-25T00:27:15.455Z,35.90
2023-11-25T00:29:52.889Z,32.50
2023-11-25T00:32:30.231Z,32.70
2023-11-25T00:35:07.698Z,28.90
2023-11-25T00:37:44.103Z,33.00
2023-11-25T00:40:21.889Z,33.70
2023-11-25T00:42:59.775Z,35.50
2023-11-25T00:45:36.672Z,34.80
2023-11-25T00:48:14.285Z,33.20
2023-11-25T00:50:52.633Z,30.60
2023-11-25T00:53:29.506Z,33.60
2023-11-25T00:56:07.954Z,34.20
2023-11-25T00:58:45.109Z,37.60
2023-11-25T01:01:21.518Z,30.10
2023-11-25T01:03:59.003Z,32.00
2023-11-25T01:06:35.676Z,31.70
2023-11-25T01:09:14.060Z,34.00
2023-11-25T01:11:50.774Z,36.00
2023-11-25T01:14:31.785Z,35.70
2023-11-25T01:17:10.978Z,34.90
2023-11-25T01:19:48.046Z,34.80
2023-11-25T01:22:24.872Z,33.20
2023-11-25T01:25:02.760Z,34.80
2023-11-25T01:27:40.217Z,35.50
2023-11-25T01:30:22.634Z,36.30
2023-11-25T01:33:00.525Z,31.20
2023-11-25T01:35:36.349Z,36.10
2023-11-25T01:38:12.771Z,34.20
2023-11-25T01:40:50.264Z,31.70
2023-11-25T01:43:29.159Z,37.30
2023-11-25T01:46:08.977Z,31.50
2023-11-25T01:48:47.220Z,33.50
2023-11-25T01:51:24.953Z,32.30
2023-11-25T01:54:02.308Z,29.90
2023-11-25T01:56:40.711Z,26.20
2023-11-25T01:59:18.955Z,26.40
2023-11-25T02:01:57.456Z,29.10
2023-11-25T02:04:35.214Z,28.70
2023-11-25T02:07:14.131Z,32.70
2023-11-25T02:09:50.334Z,31.60
2023-11-25T02:12:27.167Z,36.90
2023-11-25T02:15:04.880Z,30.30
2023-11-25T02:17:44.284Z,27.60
2023-11-25T02:20:42.339Z,31.40
2023-11-25T02:23:26.701Z,32.00
2023-11-25T02:26:05.338Z,33.60
2023-11-25T02:28:43.789Z,32.60
2023-11-25T02:31:20.926Z,35.40
2023-11-25T02:33:58.477Z,33.70
2023-11-25T02:36:36.422Z,31.90
2023-11-25T02:39:13.878Z,35.60
2023-11-25T02:41:52.687Z,30.20
2023-11-25T02:44:30.312Z,29.90
2023-11-25T02:47:07.958Z,29.60
2023-11-25T02:49:45.678Z,30.50
2023-11-25T02:52:23.316Z,33.40
2023-11-25T02:55:00.735Z,29.70
2023-11-25T02:57:37.888Z,30.20
2023-11-25T03:00:29.498Z,29.80
2023-11-25T03:03:14.482Z,24.20
2023-11-25T03:05:54.506Z,31.60
2023-11-25T03:08:31.429Z,23.80
2023-11-25T03:11:16.975Z,27.30
2023-11-25T03:13:53.622Z,28.30
2023-11-25T03:16:30.985Z,26.50
2023-11-25T03:19:11.327Z,27.90
2023-11-25T03:21:49.055Z,27.90
2023-11-25T03:24:26.185Z,24.70
2023-11-25T03:27:03.844Z,23.50
2023-11-25T03:29:41.912Z,20.70
2023-11-25T03:32:20.993Z,19.00
2023-11-25T03:35:01.541Z,17.70
2023-11-25T03:37:39.556Z,14.10
2023-11-25T03:40:20.929Z,13.30
2023-11-25T03:42:58.213Z,14.30
2023-11-25T03:45:35.788Z,9.60
2023-11-25T03:48:15.495Z,7.80
2023-11-25T03:50:52.842Z,6.80
2023-11-25T03:53:30.157Z,7.50
2023-11-25T03:56:07.994Z,5.20
2023-11-25T03:58:46.773Z,4.80
2023-11-25T04:01:24.495Z,4.10
2023-11-25T04:04:00.970Z,3.80
2023-11-25T04:06:38.040Z,3.10
2023-11-25T04:09:15.183Z,3.20
2023-11-25T04:11:55.637Z,3.40
2023-11-25T04:14:32.594Z,3.00
2023-11-25T04:17:12.784Z,2.60
2023-11-25T04:19:51.985Z,2.30
2023-11-25T04:22:29.260Z,2.30
2023-11-25T04:25:07.230Z,3.00
2023-11-25T04:27:44.367Z,3.10
2023-11-25T04:30:21.871Z,3.70
2023-11-25T04:33:00.780Z,1.80
2023-11-25T04:35:38.149Z,2.30
2023-11-25T04:38:16.462Z,1.90
2023-11-25T04:40:54.327Z,2.70
2023-11-25T04:43:31.532Z,2.10
2023-11-25T04:46:13.622Z,1.40
2023-11-25T04:48:50.868Z,1.90
2023-11-25T04:51:33.760Z,3.50
2023-11-25T04:54:12.362Z,1.70
2023-11-25T04:56:50.418Z,1.70
2023-11-25T04:59:27.635Z,1.60
2023-11-25T05:02:06.036Z,4.90
2023-11-25T05:04:43.502Z,2.10
2023-11-25T05:07:23.828Z,2.40
2023-11-25T05:10:01.019Z,1.60
2023-11-25T05:12:38.886Z,2.30
2023-11-25T05:15:19.863Z,2.00
2023-11-25T05:17:58.734Z,1.40
2023-11-25T05:20:36.184Z,1.60
2023-11-25T05:23:13.380Z,1.70
2023-11-25T05:25:52.365Z,1.50
2023-11-25T05:28:30.257Z,1.50
2023-11-25T05:31:08.867Z,1.70
2023-11-25T05:33:46.475Z,1.80
2023-11-25T05:36:25.290Z,2.40
2023-11-25T05:39:01.052Z,1.90
2023-11-25T05:41:38.683Z,1.60
2023-11-25T05:44:16.229Z,1.90
2023-11-25T05:46:54.163Z,1.70
2023-11-25T05:49:31.784Z,1.70
2023-11-25T05:52:10.168Z,1.90
2023-11-25T05:54:48.445Z,1.40
2023-11-25T05:57:27.046Z,2.20
2023-11-25T06:00:05.770Z,2.60
2023-11-25T06:02:48.933Z,1.70
2023-11-25T06:05:26.252Z,2.60
2023-11-25T06:08:03.716Z,1.80
2023-11-25T06:10:44.588Z,2.40
2023-11-25T06:13:23.468Z,1.60
2023-11-25T06:16:00.185Z,1.70
2023-11-25T06:18:37.393Z,2.00
2023-11-25T06:21:16.167Z,1.80
2023-11-25T06:23:54.393Z,2.00
2023-11-25T06:26:31.327Z,1.80
2023-11-25T06:29:08.563Z,1.90
2023-11-25T06:31:47.750Z,1.90
2023-11-25T06:34:25.569Z,1.90
2023-11-25T06:37:03.010Z,1.90
2023-11-25T06:39:41.076Z,1.60
2023-11-25T06:42:18.568Z,2.00
2023-11-25T06:44:55.327Z,5.10
2023-11-25T06:47:33.646Z,1.90
2023-11-25T06:50:15.499Z,1.30
2023-11-25T06:52:54.435Z,2.00
2023-11-25T06:55:32.691Z,2.20
2023-11-25T06:58:12.954Z,1.50
2023-11-25T07:00:50.609Z,2.00
2023-11-25T07:03:27.990Z,1.40
2023-11-25T07:06:06.319Z,1.90
2023-11-25T07:08:44.898Z,2.20
2023-11-25T07:11:25.630Z,2.50
2023-11-25T07:14:03.067Z,1.80
2023-11-25T07:16:40.598Z,3.70
2023-11-25T07:19:19.441Z,2.70
2023-11-25T07:21:56.885Z,1.50
2023-11-25T07:24:34.314Z,1.50
2023-11-25T07:27:12.275Z,1.90
2023-11-25T07:29:50.688Z,4.70
2023-11-25T07:32:28.049Z,3.50
2023-11-25T07:35:08.237Z,2.60
2023-11-25T07:37:46.250Z,2.90
2023-11-25T07:40:23.864Z,1.50
2023-11-25T07:43:00.466Z,2.20
2023-11-25T07:45:38.608Z,1.90
2023-11-25T07:48:16.308Z,1.30
2023-11-25T07:50:53.178Z,1.40
2023-11-25T07:53:30.308Z,2.30
2023-11-25T07:56:07.955Z,4.20
2023-11-25T07:58:46.172Z,3.20
2023-11-25T08:01:26.490Z,2.30
2023-11-25T08:04:04.012Z,1.70
2023-11-25T08:06:41.883Z,1.80
2023-11-25T08:09:19.453Z,1.50
2023-11-25T08:11:57.217Z,2.10
2023-11-25T08:14:34.639Z,3.20
2023-11-25T08:17:12.880Z,2.60
2023-11-25T08:19:50.408Z,2.60
2023-11-25T08:22:27.920Z,1.50
2023-11-25T08:25:09.779Z,1.60
2023-11-25T08:27:47.273Z,2.00
2023-11-25T08:30:26.144Z,3.30
2023-11-25T08:33:03.601Z,1.80
2023-11-25T08:35:41.186Z,3.00
2023-11-25T08:38:21.287Z,2.00
2023-11-25T08:40:59.057Z,2.00
2023-11-25T08:43:36.936Z,1.70
2023-11-25T08:46:14.865Z,2.30
2023-11-25T08:48:52.643Z,1.70
2023-11-25T08:51:30.343Z,2.00
2023-11-25T08:54:06.864Z,2.20
2023-11-25T08:56:47.907Z,2.50
2023-11-25T08:59:26.497Z,2.50
2023-11-25T09:02:06.073Z,1.90
2023-11-25T09:04:44.354Z,1.20
2023-11-25T09:07:23.754Z,2.30
2023-11-25T09:10:02.254Z,3.20
2023-11-25T09:12:40.525Z,1.80
2023-11-25T09:15:23.000Z,1.60
2023-11-25T09:17:59.510Z,2.00
2023-11-25T09:20:36.683Z,1.40
2023-11-25T09:23:14.513Z,1.40
2023-11-25T09:25:51.997Z,1.50
2023-11-25T09:28:31.531Z,3.40
2023-11-25T09:31:09.109Z,1.30
2023-11-25T09:33:46.471Z,2.60
2023-11-25T09:36:26.299Z,2.10
2023-11-25T09:39:05.351Z,1.50
2023-11-25T09:41:42.515Z,1.70
2023-11-25T09:44:19.747Z,1.60
2023-11-25T09:46:58.659Z,1.60
2023-11-25T09:49:36.506Z,2.70
2023-11-25T09:52:22.882Z,1.40
2023-11-25T09:55:05.928Z,2.00
2023-11-25T09:57:43.958Z,2.60
2023-11-25T10:00:26.075Z,1.80
2023-11-25T10:03:04.490Z,1.60
2023-11-25T10:05:41.286Z,1.50
2023-11-25T10:08:19.392Z,3.30
2023-11-25T10:11:11.026Z,2.10
2023-11-25T10:13:48.097Z,2.10
2023-11-25T10:16:35.176Z,2.00
2023-11-25T10:19:25.328Z,2.40
2023-11-25T10:22:03.423Z,2.10
2023-11-25T10:24:47.347Z,5.10
2023-11-25T10:27:25.738Z,1.80
2023-11-25T10:30:07.105Z,2.10
2023-11-25T10:32:44.686Z,2.50
2023-11-25T10:35:22.283Z,2.10
2023-11-25T10:38:00.548Z,3.10
2023-11-25T10:40:39.233Z,1.90
2023-11-25T10:43:17.649Z,1.90
2023-11-25T10:46:03.587Z,1.90
2023-11-25T10:48:42.544Z,2.20
2023-11-25T10:51:22.657Z,2.10
2023-11-25T10:54:02.091Z,1.70
2023-11-25T10:56:41.766Z,2.20
2023-11-25T10:59:22.907Z,2.70
2023-11-25T11:02:06.477Z,2.70
2023-11-25T11:04:53.466Z,1.60
2023-11-25T11:07:34.321Z,1.60
2023-11-25T11:10:21.679Z,3.40
2023-11-25T11:13:06.277Z,3.20
2023-11-25T11:15:46.613Z,4.00
2023-11-25T11:18:37.811Z,1.90
2023-11-25T11:21:20.980Z,1.60
2023-11-25T11:23:58.826Z,1.40
2023-11-25T11:26:50.013Z,1.80
2023-11-25T11:29:40.910Z,4.70
2023-11-25T11:32:22.939Z,4.30
2023-11-25T11:35:03.238Z,4.10
2023-11-25T11:37:54.074Z,2.70
2023-11-25T11:40:31.804Z,2.20
2023-11-25T11:43:16.411Z,2.70
2023-11-25T11:45:57.576Z,3.00
2023-11-25T11:48:44.377Z,1.90
2023-11-25T11:51:22.326Z,1.50
2023-11-25T11:54:35.870Z,1.70
2023-11-25T11:57:16.880Z,1.80
2023-11-25T12:00:17.444Z,1.70
2023-11-25T12:02:56.144Z,1.70
2023-11-25T12:05:34.900Z,1.70
2023-11-25T12:08:13.961Z,1.90
2023-11-25T12:10:51.417Z,1.60
2023-11-25T12:13:39.315Z,2.10
2023-11-25T12:16:21.067Z,2.00
2023-11-25T12:18:59.184Z,1.70
2023-11-25T12:21:37.552Z,1.50
2023-11-25T12:24:24.398Z,2.80
2023-11-25T12:27:06.189Z,3.00
2023-11-25T12:29:45.908Z,1.70
2023-11-25T12:32:25.614Z,2.30
2023-11-25T12:35:05.996Z,1.60
2023-11-25T12:37:55.073Z,1.80
2023-11-25T12:40:42.870Z,1.50
2023-11-25T12:43:23.282Z,1.80
2023-11-25T12:46:14.472Z,1.50
2023-11-25T12:48:54.387Z,1.60
2023-11-25T12:51:49.896Z,3.80
2023-11-25T12:54:46.355Z,2.50
2023-11-25T12:57:33.940Z,6.20
2023-11-25T13:00:25.974Z,5.40
2023-11-25T13:03:06.995Z,7.50
2023-11-25T13:05:51.840Z,3.40
2023-11-25T13:08:38.213Z,3.40
2023-11-25T13:11:22.972Z,5.20
2023-11-25T13:14:03.021Z,4.80
2023-11-25T13:16:43.966Z,2.40
2023-11-25T13:19:24.333Z,3.10
2023-11-25T13:22:05.256Z,3.70
2023-11-25T13:24:45.077Z,2.40
2023-11-25T13:27:25.393Z,2.10
2023-11-25T13:30:04.733Z,1.60
2023-11-25T13:32:45.002Z,1.70
2023-11-25T13:35:25.360Z,2.50
2023-11-25T13:38:07.447Z,2.00
2023-11-25T13:40:48.665Z,2.30
2023-11-25T13:43:29.070Z,2.20
2023-11-25T13:46:09.532Z,1.50
2023-11-25T13:48:50.006Z,1.50
2023-11-25T13:51:30.641Z,2.30
2023-11-25T13:54:12.222Z,1.60
2023-11-25T13:56:53.866Z,1.80
2023-11-25T13:59:33.341Z,1.70
2023-11-25T14:02:14.786Z,2.50
2023-11-25T14:05:01.469Z,3.10
2023-11-25T14:07:43.492Z,2.20
2023-11-25T14:10:24.466Z,2.90
2023-11-25T14:13:04.618Z,1.80
2023-11-25T14:15:47.616Z,1.80
2023-11-25T14:18:28.354Z,2.40
2023-11-25T14:21:08.092Z,3.30
2023-11-25T14:23:49.062Z,2.20
2023-11-25T14:26:31.574Z,2.90
2023-11-25T14:29:10.653Z,2.30
2023-11-25T14:31:52.103Z,2.30
2023-11-25T14:34:32.184Z,2.60
2023-11-25T14:37:11.307Z,2.30
2023-11-25T14:39:58.386Z,2.60
2023-11-25T14:42:41.581Z,2.50
2023-11-25T14:45:23.321Z,6.10
2023-11-25T14:48:04.919Z,2.20
2023-11-25T14:50:46.144Z,2.20
2023-11-25T14:53:26.069Z,3.30
2023-11-25T14:56:07.859Z,4.10
2023-11-25T14:58:48.396Z,2.40
2023-11-25T15:01:32.108Z,3.40
2023-11-25T15:04:12.548Z,2.60
2023-11-25T15:06:53.519Z,3.00
2023-11-25T15:09:32.853Z,2.00
2023-11-25T15:12:16.143Z,4.30
2023-11-25T15:14:57.684Z,2.50
2023-11-25T15:17:40.829Z,4.30
2023-11-25T15:20:24.823Z,2.20
2023-11-25T15:23:08.864Z,1.70
2023-11-25T15:25:48.849Z,2.10
2023-11-25T15:28:34.933Z,1.70
2023-11-25T15:31:16.133Z,3.50
2023-11-25T15:33:56.963Z,1.80
2023-11-25T15:36:37.486Z,2.60
2023-11-25T15:39:18.008Z,2.00
2023-11-25T15:41:58.537Z,2.00
2023-11-25T15:44:38.747Z,2.20
2023-11-25T15:47:20.239Z,2.00
2023-11-25T15:49:59.727Z,2.60
2023-11-25T15:52:40.822Z,2.70
2023-11-25T15:55:21.872Z,2.30
2023-11-25T15:58:01.073Z,3.80
2023-11-25T16:00:41.245Z,1.50
2023-11-25T16:03:22.491Z,1.60
2023-11-25T16:06:06.104Z,2.20
2023-11-25T16:08:46.834Z,1.50
2023-11-25T16:11:29.264Z,2.70
2023-11-25T16:14:10.593Z,1.60
2023-11-25T16:16:58.699Z,2.00
2023-11-25T16:19:40.685Z,3.10
2023-11-25T16:22:21.300Z,6.20
2023-11-25T16:25:08.145Z,9.20
2023-11-25T16:27:52.126Z,8.90
2023-11-25T16:30:33.373Z,5.80
2023-11-25T16:33:17.763Z,7.50
2023-11-25T16:36:01.355Z,5.60
2023-11-25T16:38:42.391Z,6.00
2023-11-25T16:41:38.050Z,3.60
2023-11-25T16:44:20.404Z,3.30
2023-11-25T16:47:03.174Z,2.60
2023-11-25T16:49:43.011Z,10.30
2023-11-25T16:52:23.809Z,4.90
2023-11-25T16:55:02.570Z,4.00
2023-11-25T16:57:45.404Z,3.60
2023-11-25T17:00:29.825Z,4.20
2023-11-25T17:03:12.182Z,5.40
2023-11-25T17:05:55.028Z,4.70
2023-11-25T17:08:35.984Z,6.30
2023-11-25T17:11:17.643Z,5.20
2023-11-25T17:13:57.348Z,5.00
2023-11-25T17:16:37.301Z,4.90
2023-11-25T17:19:17.133Z,4.50
2023-11-25T17:21:59.368Z,4.60
2023-11-25T17:24:40.751Z,4.60
2023-11-25T17:27:21.501Z,3.60
2023-11-25T17:30:01.589Z,4.70
2023-11-25T17:32:43.946Z,5.90
2023-11-25T17:35:25.139Z,6.00
2023-11-25T17:38:07.253Z,4.90
2023-11-25T17:40:48.185Z,5.40
2023-11-25T17:43:41.174Z,5.20
2023-11-25T17:46:21.760Z,6.70
2023-11-25T17:49:00.829Z,4.70
2023-11-25T17:51:39.942Z,9.30
2023-11-25T17:54:24.309Z,18.30
2023-11-25T17:57:10.128Z,12.80
2023-11-25T17:59:51.610Z,22.20
2023-11-25T18:02:32.566Z,18.10
2023-11-25T18:05:18.846Z,7.10
2023-11-25T18:07:58.691Z,9.00
2023-11-25T18:10:39.626Z,5.00
2023-11-25T18:13:21.570Z,6.80
2023-11-25T18:16:02.502Z,4.10
2023-11-25T18:18:44.637Z,6.10
2023-11-25T18:21:24.341Z,6.70
2023-11-25T18:24:04.849Z,9.00
2023-11-25T18:26:44.608Z,10.70
2023-11-25T18:29:26.137Z,9.50
2023-11-25T18:32:08.938Z,13.60
2023-11-25T18:34:49.017Z,12.70
2023-11-25T18:37:31.071Z,10.40
2023-11-25T18:40:15.026Z,5.50
2023-11-25T18:42:56.461Z,5.70
2023-11-25T18:45:37.168Z,5.50
2023-11-25T18:48:20.814Z,11.00
2023-11-25T18:51:01.036Z,8.20
2023-11-25T18:53:43.809Z,6.20
2023-11-25T18:56:28.303Z,6.30
2023-11-25T18:59:08.191Z,7.30
2023-11-25T19:01:48.921Z,6.80
2023-11-25T19:04:29.077Z,9.70
2023-11-25T19:07:08.694Z,4.70
2023-11-25T19:09:55.034Z,6.60
2023-11-25T19:12:36.871Z,6.60
2023-11-25T19:15:20.705Z,5.70
2023-11-25T19:18:00.233Z,8.60
2023-11-25T19:20:39.809Z,9.60
2023-11-25T19:23:28.359Z,4.80
2023-11-25T19:26:10.859Z,7.20
2023-11-25T19:28:53.171Z,8.40
2023-11-25T19:31:35.191Z,9.70
2023-11-25T19:34:20.876Z,5.10
2023-11-25T19:37:16.824Z,4.70
2023-11-25T19:40:07.686Z,9.30
2023-11-25T19:43:07.486Z,5.30
2023-11-25T19:46:03.402Z,5.50
2023-11-25T19:48:53.884Z,4.70
2023-11-25T19:51:44.447Z,5.60
2023-11-25T19:54:41.348Z,5.70
2023-11-25T19:57:38.853Z,4.20
2023-11-25T20:00:56.090Z,4.60
2023-11-25T20:04:07.627Z,5.00
2023-11-25T20:06:51.789Z,5.10
2023-11-25T20:09:33.844Z,7.80
2023-11-25T20:12:24.868Z,6.10
2023-11-25T20:15:11.731Z,4.60
2023-11-25T20:18:03.970Z,4.10
2023-11-25T20:20:56.089Z,4.80
2023-11-25T20:23:48.100Z,6.10
2023-11-25T20:26:42.845Z,6.20
2023-11-25T20:29:41.550Z,6.80
2023-11-25T20:32:26.907Z,5.10
2023-11-25T20:35:11.369Z,4.90
2023-11-25T20:37:53.572Z,4.20
2023-11-25T20:40:41.139Z,6.90
2023-11-25T20:43:29.116Z,5.80
2023-11-25T20:46:08.747Z,5.00
2023-11-25T20:48:50.649Z,4.50
2023-11-25T20:51:34.062Z,4.90
2023-11-25T20:54:13.811Z,5.10
2023-11-25T20:56:58.020Z,3.90
2023-11-25T20:59:39.240Z,4.40
2023-11-25T21:02:20.557Z,4.30
2023-11-25T21:05:00.563Z,5.20
2023-11-25T21:07:42.641Z,4.50
2023-11-25T21:10:24.641Z,6.20
2023-11-25T21:13:11.920Z,4.70
2023-11-25T21:15:52.133Z,5.00
2023-11-25T21:18:35.983Z,6.40
2023-11-25T21:21:18.992Z,5.40
2023-11-25T21:24:01.841Z,5.40
2023-11-25T21:26:41.842Z,5.60
2023-11-25T21:29:22.605Z,19.70
2023-11-25T21:32:04.630Z,6.50
2023-11-25T21:34:44.838Z,4.30
2023-11-25T21:37:22.623Z,3.70
2023-11-25T21:40:09.311Z,3.60
2023-11-25T21:42:53.126Z,3.40
2023-11-25T21:45:32.360Z,3.80
2023-11-25T21:48:12.342Z,4.60
2023-11-25T21:50:51.640Z,4.50
2023-11-25T21:53:30.314Z,4.00
2023-11-25T21:56:09.709Z,4.50
2023-11-25T21:58:48.768Z,4.20
2023-11-25T22:01:28.771Z,4.30
2023-11-25T22:04:10.177Z,5.20
2023-11-25T22:06:48.190Z,6.60
2023-11-25T22:09:27.444Z,4.40
2023-11-25T22:12:05.903Z,4.10
2023-11-25T22:14:43.581Z,5.30
2023-11-25T22:17:21.001Z,6.30
2023-11-25T22:19:58.702Z,5.10
2023-11-25T22:22:38.608Z,5.10
2023-11-25T22:25:27.633Z,5.50
2023-11-25T22:28:11.365Z,7.20
2023-11-25T22:30:48.503Z,8.30
2023-11-25T22:33:27.886Z,4.50
2023-11-25T22:36:05.780Z,3.50
2023-11-25T22:38:43.495Z,12.80
2023-11-25T22:41:20.585Z,18.70
2023-11-25T22:43:57.419Z,8.30
2023-11-25T22:46:47.989Z,11.60
2023-11-25T22:49:24.810Z,41.40
2023-11-25T22:52:02.615Z,20.70
2023-11-25T22:54:40.961Z,5.10
2023-11-25T22:57:19.797Z,5.10
2023-11-25T22:59:56.950Z,4.60
2023-11-25T23:02:36.974Z,4.90
2023-11-25T23:05:18.104Z,3.70
2023-11-25T23:07:55.062Z,3.70
2023-11-25T23:10:32.535Z,5.20
2023-11-25T23:13:09.906Z,4.80
2023-11-25T23:15:47.300Z,3.60
2023-11-25T23:18:24.918Z,3.90
2023-11-25T23:21:02.538Z,2.90
2023-11-25T23:23:48.449Z,5.00
2023-11-25T23:26:26.381Z,5.40
2023-11-25T23:29:03.562Z,3.60
2023-11-25T23:31:40.067Z,3.20
2023-11-25T23:34:17.753Z,2.90
2023-11-25T23:36:55.120Z,3.80
2023-11-25T23:39:32.319Z,4.10
2023-11-25T23:42:11.502Z,3.20
2023-11-25T23:44:49.040Z,3.80
2023-11-25T23:47:27.075Z,3.40
2023-11-25T23:50:09.506Z,3.60
2023-11-25T23:52:46.468Z,3.20
2023-11-25T23:55:24.367Z,4.40
2023-11-25T23:58:01.694Z,5.20
